sensor_id;sensor_type;location;lat;lon;timestamp;temperature;humidity
26757;DHT22;23848;49.798;10.228;2022-07-11T00:00:25;17.00;99.90
26757;DHT22;23848;49.798;10.228;2022-07-11T00:02:53;17.10;99.90
26757;DHT22;23848;49.798;10.228;2022-07-11T00:05:23;17.10;99.90
26757;DHT22;23848;49.798;10.228;2022-07-11T00:07:51;17.00;99.90
26757;DHT22;23848;49.798;10.228;2022-07-11T00:10:19;17.00;99.90
26757;DHT22;23848;49.798;10.228;2022-07-11T00:12:47;17.00;99.90
26757;DHT22;23848;49.798;10.228;2022-07-11T00:15:15;17.00;99.90
26757;DHT22;23848;49.798;10.228;2022-07-11T00:17:43;17.00;99.90
26757;DHT22;23848;49.798;10.228;2022-07-11T00:20:11;17.00;99.90
26757;DHT22;23848;49.798;10.228;2022-07-11T00:22:41;17.10;99.90
26757;DHT22;23848;49.798;10.228;2022-07-11T00:25:10;17.10;99.90
26757;DHT22;23848;49.798;10.228;2022-07-11T00:27:38;17.00;99.90
26757;DHT22;23848;49.798;10.228;2022-07-11T00:30:09;17.00;99.90
26757;DHT22;23848;49.798;10.228;2022-07-11T00:32:37;17.00;99.90
26757;DHT22;23848;49.798;10.228;2022-07-11T00:35:06;17.00;99.90
26757;DHT22;23848;49.798;10.228;2022-07-11T00:37:34;17.00;99.90
26757;DHT22;23848;49.798;10.228;2022-07-11T00:40:05;16.90;99.90
26757;DHT22;23848;49.798;10.228;2022-07-11T00:42:33;16.80;99.90
26757;DHT22;23848;49.798;10.228;2022-07-11T00:45:01;16.90;99.90
26757;DHT22;23848;49.798;10.228;2022-07-11T00:47:29;16.90;99.90
26757;DHT22;23848;49.798;10.228;2022-07-11T00:49:58;16.90;99.90
26757;DHT22;23848;49.798;10.228;2022-07-11T00:52:26;16.90;99.90
26757;DHT22;23848;49.798;10.228;2022-07-11T00:54:55;16.90;99.90
26757;DHT22;23848;49.798;10.228;2022-07-11T00:57:25;16.90;99.90
26757;DHT22;23848;49.798;10.228;2022-07-11T00:59:53;16.80;99.90
26757;DHT22;23848;49.798;10.228;2022-07-11T01:02:21;16.80;99.90
26757;DHT22;23848;49.798;10.228;2022-07-11T01:04:50;16.80;99.90
26757;DHT22;23848;49.798;10.228;2022-07-11T01:07:18;16.80;99.90
26757;DHT22;23848;49.798;10.228;2022-07-11T01:09:47;16.70;99.90
26757;DHT22;23848;49.798;10.228;2022-07-11T01:12:15;16.70;99.90
26757;DHT22;23848;49.798;10.228;2022-07-11T01:14:52;16.70;99.90
26757;DHT22;23848;49.798;10.228;2022-07-11T01:17:20;16.60;99.90
26757;DHT22;23848;49.798;10.228;2022-07-11T01:19:48;16.60;99.90
26757;DHT22;23848;49.798;10.228;2022-07-11T01:22:21;16.50;99.90
26757;DHT22;23848;49.798;10.228;2022-07-11T01:24:51;16.40;99.90
26757;DHT22;23848;49.798;10.228;2022-07-11T01:27:20;16.40;99.90
26757;DHT22;23848;49.798;10.228;2022-07-11T01:29:49;16.30;99.90
26757;DHT22;23848;49.798;10.228;2022-07-11T01:32:17;16.30;99.90
26757;DHT22;23848;49.798;10.228;2022-07-11T01:34:45;16.40;99.90
26757;DHT22;23848;49.798;10.228;2022-07-11T01:37:13;16.40;99.90
26757;DHT22;23848;49.798;10.228;2022-07-11T01:39:42;16.40;99.90
26757;DHT22;23848;49.798;10.228;2022-07-11T01:42:11;16.50;99.90
26757;DHT22;23848;49.798;10.228;2022-07-11T01:44:39;16.40;99.90
26757;DHT22;23848;49.798;10.228;2022-07-11T01:47:07;16.50;99.90
26757;DHT22;23848;49.798;10.228;2022-07-11T01:49:35;16.50;99.90
26757;DHT22;23848;49.798;10.228;2022-07-11T01:52:04;16.50;99.90
26757;DHT22;23848;49.798;10.228;2022-07-11T01:54:32;16.40;99.90
26757;DHT22;23848;49.798;10.228;2022-07-11T01:57:00;16.40;99.90
26757;DHT22;23848;49.798;10.228;2022-07-11T01:59:30;16.40;99.90
26757;DHT22;23848;49.798;10.228;2022-07-11T02:01:58;16.40;99.90
26757;DHT22;23848;49.798;10.228;2022-07-11T02:04:26;16.40;99.90
26757;DHT22;23848;49.798;10.228;2022-07-11T02:06:54;16.40;99.90
26757;DHT22;23848;49.798;10.228;2022-07-11T02:09:22;16.40;99.90
26757;DHT22;23848;49.798;10.228;2022-07-11T02:11:51;16.40;99.90
26757;DHT22;23848;49.798;10.228;2022-07-11T02:14:19;16.40;99.90
26757;DHT22;23848;49.798;10.228;2022-07-11T02:16:49;16.40;99.90
26757;DHT22;23848;49.798;10.228;2022-07-11T02:19:18;16.50;99.90
26757;DHT22;23848;49.798;10.228;2022-07-11T02:21:46;16.50;99.90
26757;DHT22;23848;49.798;10.228;2022-07-11T02:24:14;16.50;99.90
26757;DHT22;23848;49.798;10.228;2022-07-11T02:26:42;16.50;99.90
26757;DHT22;23848;49.798;10.228;2022-07-11T02:29:10;16.50;99.90
26757;DHT22;23848;49.798;10.228;2022-07-11T02:31:38;16.60;99.90
26757;DHT22;23848;49.798;10.228;2022-07-11T02:34:08;16.60;99.90
26757;DHT22;23848;49.798;10.228;2022-07-11T02:36:36;16.60;99.90
26757;DHT22;23848;49.798;10.228;2022-07-11T02:39:04;16.50;99.90
26757;DHT22;23848;49.798;10.228;2022-07-11T02:41:32;16.50;99.90
26757;DHT22;23848;49.798;10.228;2022-07-11T02:44:00;16.50;99.90
26757;DHT22;23848;49.798;10.228;2022-07-11T02:46:28;16.50;99.90
26757;DHT22;23848;49.798;10.228;2022-07-11T02:48:56;16.50;99.90
26757;DHT22;23848;49.798;10.228;2022-07-11T02:51:25;16.50;99.90
26757;DHT22;23848;49.798;10.228;2022-07-11T02:53:53;16.40;99.90
26757;DHT22;23848;49.798;10.228;2022-07-11T02:56:21;16.50;99.90
26757;DHT22;23848;49.798;10.228;2022-07-11T02:58:50;16.40;99.90
26757;DHT22;23848;49.798;10.228;2022-07-11T03:01:18;16.40;99.90
26757;DHT22;23848;49.798;10.228;2022-07-11T03:03:46;16.40;99.90
26757;DHT22;23848;49.798;10.228;2022-07-11T03:06:14;16.30;99.90
26757;DHT22;23848;49.798;10.228;2022-07-11T03:08:44;16.20;99.90
26757;DHT22;23848;49.798;10.228;2022-07-11T03:11:12;16.30;99.90
26757;DHT22;23848;49.798;10.228;2022-07-11T03:13:40;16.20;99.90
26757;DHT22;23848;49.798;10.228;2022-07-11T03:16:08;16.30;99.90
26757;DHT22;23848;49.798;10.228;2022-07-11T03:18:37;16.30;99.90
26757;DHT22;23848;49.798;10.228;2022-07-11T03:21:05;16.30;99.90
26757;DHT22;23848;49.798;10.228;2022-07-11T03:23:33;16.30;99.90
26757;DHT22;23848;49.798;10.228;2022-07-11T03:26:03;16.30;99.90
26757;DHT22;23848;49.798;10.228;2022-07-11T03:28:32;16.30;99.90
26757;DHT22;23848;49.798;10.228;2022-07-11T03:31:00;16.30;99.90
26757;DHT22;23848;49.798;10.228;2022-07-11T03:33:29;16.30;99.90
26757;DHT22;23848;49.798;10.228;2022-07-11T03:35:57;16.30;99.90
26757;DHT22;23848;49.798;10.228;2022-07-11T03:38:25;16.30;99.90
26757;DHT22;23848;49.798;10.228;2022-07-11T03:40:53;16.30;99.90
26757;DHT22;23848;49.798;10.228;2022-07-11T03:43:24;16.40;99.90
26757;DHT22;23848;49.798;10.228;2022-07-11T03:45:52;16.30;99.90
26757;DHT22;23848;49.798;10.228;2022-07-11T03:48:20;16.40;99.90
26757;DHT22;23848;49.798;10.228;2022-07-11T03:50:48;16.40;99.90
26757;DHT22;23848;49.798;10.228;2022-07-11T03:53:17;16.40;99.90
26757;DHT22;23848;49.798;10.228;2022-07-11T03:55:45;16.40;99.90
26757;DHT22;23848;49.798;10.228;2022-07-11T03:58:13;16.40;99.90
26757;DHT22;23848;49.798;10.228;2022-07-11T04:00:43;16.40;99.90
26757;DHT22;23848;49.798;10.228;2022-07-11T04:03:11;16.40;99.90
26757;DHT22;23848;49.798;10.228;2022-07-11T04:05:39;16.30;99.90
26757;DHT22;23848;49.798;10.228;2022-07-11T04:08:07;16.40;99.90
26757;DHT22;23848;49.798;10.228;2022-07-11T04:10:36;16.40;99.90
26757;DHT22;23848;49.798;10.228;2022-07-11T04:13:04;16.40;99.90
26757;DHT22;23848;49.798;10.228;2022-07-11T04:15:32;16.40;99.90
26757;DHT22;23848;49.798;10.228;2022-07-11T04:18:02;16.40;99.90
26757;DHT22;23848;49.798;10.228;2022-07-11T04:20:31;16.30;99.90
26757;DHT22;23848;49.798;10.228;2022-07-11T04:22:59;16.40;99.90
26757;DHT22;23848;49.798;10.228;2022-07-11T04:25:27;16.40;99.90
26757;DHT22;23848;49.798;10.228;2022-07-11T04:27:55;16.30;99.90
26757;DHT22;23848;49.798;10.228;2022-07-11T04:30:23;16.40;99.90
26757;DHT22;23848;49.798;10.228;2022-07-11T04:32:51;16.40;99.90
26757;DHT22;23848;49.798;10.228;2022-07-11T04:35:21;16.40;99.90
26757;DHT22;23848;49.798;10.228;2022-07-11T04:37:50;16.40;99.90
26757;DHT22;23848;49.798;10.228;2022-07-11T04:40:18;16.40;99.90
26757;DHT22;23848;49.798;10.228;2022-07-11T04:42:47;16.50;99.90
26757;DHT22;23848;49.798;10.228;2022-07-11T04:45:15;16.50;99.90
26757;DHT22;23848;49.798;10.228;2022-07-11T04:47:43;16.50;99.90
26757;DHT22;23848;49.798;10.228;2022-07-11T04:50:11;16.60;99.90
26757;DHT22;23848;49.798;10.228;2022-07-11T04:52:42;16.60;99.90
26757;DHT22;23848;49.798;10.228;2022-07-11T04:55:11;16.70;99.90
26757;DHT22;23848;49.798;10.228;2022-07-11T04:57:39;16.70;99.90
26757;DHT22;23848;49.798;10.228;2022-07-11T05:00:07;16.60;99.90
26757;DHT22;23848;49.798;10.228;2022-07-11T05:02:36;16.60;99.90
26757;DHT22;23848;49.798;10.228;2022-07-11T05:05:04;16.70;99.90
26757;DHT22;23848;49.798;10.228;2022-07-11T05:07:34;16.70;99.90
26757;DHT22;23848;49.798;10.228;2022-07-11T05:10:04;16.70;99.90
26757;DHT22;23848;49.798;10.228;2022-07-11T05:12:32;16.70;99.90
26757;DHT22;23848;49.798;10.228;2022-07-11T05:15:00;16.70;99.90
26757;DHT22;23848;49.798;10.228;2022-07-11T05:17:28;16.80;99.90
26757;DHT22;23848;49.798;10.228;2022-07-11T05:19:56;16.70;99.90
26757;DHT22;23848;49.798;10.228;2022-07-11T05:22:24;16.70;99.90
26757;DHT22;23848;49.798;10.228;2022-07-11T05:24:53;16.80;99.90
26757;DHT22;23848;49.798;10.228;2022-07-11T05:27:25;16.80;99.90
26757;DHT22;23848;49.798;10.228;2022-07-11T05:29:53;16.90;99.90
26757;DHT22;23848;49.798;10.228;2022-07-11T05:32:21;16.90;99.90
26757;DHT22;23848;49.798;10.228;2022-07-11T05:34:49;17.00;99.90
26757;DHT22;23848;49.798;10.228;2022-07-11T05:37:18;17.00;99.90
26757;DHT22;23848;49.798;10.228;2022-07-11T05:39:46;17.00;99.90
26757;DHT22;23848;49.798;10.228;2022-07-11T05:42:14;17.00;99.90
26757;DHT22;23848;49.798;10.228;2022-07-11T05:44:43;17.00;99.90
26757;DHT22;23848;49.798;10.228;2022-07-11T05:47:11;17.00;99.90
26757;DHT22;23848;49.798;10.228;2022-07-11T05:49:39;17.00;99.90
26757;DHT22;23848;49.798;10.228;2022-07-11T05:52:08;17.10;99.90
26757;DHT22;23848;49.798;10.228;2022-07-11T05:54:36;17.10;99.90
26757;DHT22;23848;49.798;10.228;2022-07-11T05:57:05;17.10;99.90
26757;DHT22;23848;49.798;10.228;2022-07-11T05:59:33;17.00;99.90
26757;DHT22;23848;49.798;10.228;2022-07-11T06:02:04;17.10;99.90
26757;DHT22;23848;49.798;10.228;2022-07-11T06:04:34;17.00;99.90
26757;DHT22;23848;49.798;10.228;2022-07-11T06:07:03;17.00;99.90
26757;DHT22;23848;49.798;10.228;2022-07-11T06:09:32;17.00;99.90
26757;DHT22;23848;49.798;10.228;2022-07-11T06:11:59;17.10;99.90
26757;DHT22;23848;49.798;10.228;2022-07-11T06:14:27;17.10;99.90
26757;DHT22;23848;49.798;10.228;2022-07-11T06:16:55;17.10;99.90
26757;DHT22;23848;49.798;10.228;2022-07-11T06:19:25;17.10;99.90
26757;DHT22;23848;49.798;10.228;2022-07-11T06:21:53;17.10;99.90
26757;DHT22;23848;49.798;10.228;2022-07-11T06:24:21;17.10;99.90
26757;DHT22;23848;49.798;10.228;2022-07-11T06:26:51;17.10;99.90
26757;DHT22;23848;49.798;10.228;2022-07-11T06:29:20;17.20;99.90
26757;DHT22;23848;49.798;10.228;2022-07-11T06:31:48;17.20;99.90
26757;DHT22;23848;49.798;10.228;2022-07-11T06:34:16;17.20;99.90
26757;DHT22;23848;49.798;10.228;2022-07-11T06:36:46;17.30;99.90
26757;DHT22;23848;49.798;10.228;2022-07-11T06:39:14;17.10;99.90
26757;DHT22;23848;49.798;10.228;2022-07-11T06:41:42;17.10;99.90
26757;DHT22;23848;49.798;10.228;2022-07-11T06:44:10;17.10;99.90
26757;DHT22;23848;49.798;10.228;2022-07-11T06:46:38;17.10;99.90
26757;DHT22;23848;49.798;10.228;2022-07-11T06:49:06;17.10;99.90
26757;DHT22;23848;49.798;10.228;2022-07-11T06:51:35;17.20;99.90
26757;DHT22;23848;49.798;10.228;2022-07-11T06:54:05;17.40;99.90
26757;DHT22;23848;49.798;10.228;2022-07-11T06:56:33;17.50;99.90
26757;DHT22;23848;49.798;10.228;2022-07-11T06:59:01;17.60;99.90
26757;DHT22;23848;49.798;10.228;2022-07-11T07:01:29;17.80;99.90
26757;DHT22;23848;49.798;10.228;2022-07-11T07:03:57;17.80;99.90
26757;DHT22;23848;49.798;10.228;2022-07-11T07:06:25;17.90;99.90
26757;DHT22;23848;49.798;10.228;2022-07-11T07:08:53;17.90;99.90
26757;DHT22;23848;49.798;10.228;2022-07-11T07:11:23;18.00;99.90
26757;DHT22;23848;49.798;10.228;2022-07-11T07:13:51;18.00;99.90
26757;DHT22;23848;49.798;10.228;2022-07-11T07:16:19;18.10;99.90
26757;DHT22;23848;49.798;10.228;2022-07-11T07:18:47;18.20;99.90
26757;DHT22;23848;49.798;10.228;2022-07-11T07:21:17;18.20;99.90
26757;DHT22;23848;49.798;10.228;2022-07-11T07:23:45;18.40;99.90
26757;DHT22;23848;49.798;10.228;2022-07-11T07:26:13;18.30;99.90
26757;DHT22;23848;49.798;10.228;2022-07-11T07:28:43;18.40;99.90
26757;DHT22;23848;49.798;10.228;2022-07-11T07:31:13;18.30;99.90
26757;DHT22;23848;49.798;10.228;2022-07-11T07:33:42;18.40;99.90
26757;DHT22;23848;49.798;10.228;2022-07-11T07:36:13;18.40;99.90
26757;DHT22;23848;49.798;10.228;2022-07-11T07:38:41;18.40;99.90
26757;DHT22;23848;49.798;10.228;2022-07-11T07:41:11;18.50;99.90
26757;DHT22;23848;49.798;10.228;2022-07-11T07:43:39;18.50;99.90
26757;DHT22;23848;49.798;10.228;2022-07-11T07:46:09;18.60;99.90
26757;DHT22;23848;49.798;10.228;2022-07-11T07:48:38;18.60;99.90
26757;DHT22;23848;49.798;10.228;2022-07-11T07:51:06;18.70;99.90
26757;DHT22;23848;49.798;10.228;2022-07-11T07:53:35;18.70;99.90
26757;DHT22;23848;49.798;10.228;2022-07-11T07:56:04;18.70;99.90
26757;DHT22;23848;49.798;10.228;2022-07-11T07:58:32;18.50;99.90
26757;DHT22;23848;49.798;10.228;2022-07-11T08:01:00;18.50;99.90
26757;DHT22;23848;49.798;10.228;2022-07-11T08:03:47;18.50;99.90
26757;DHT22;23848;49.798;10.228;2022-07-11T08:06:15;18.50;99.90
26757;DHT22;23848;49.798;10.228;2022-07-11T08:08:43;18.50;99.90
26757;DHT22;23848;49.798;10.228;2022-07-11T08:11:11;18.70;99.90
26757;DHT22;23848;49.798;10.228;2022-07-11T08:13:58;18.70;99.90
26757;DHT22;23848;49.798;10.228;2022-07-11T08:16:27;18.80;99.90
26757;DHT22;23848;49.798;10.228;2022-07-11T08:19:00;18.80;99.90
26757;DHT22;23848;49.798;10.228;2022-07-11T08:21:28;18.80;99.90
26757;DHT22;23848;49.798;10.228;2022-07-11T08:23:57;18.80;99.90
26757;DHT22;23848;49.798;10.228;2022-07-11T08:26:25;18.70;99.90
26757;DHT22;23848;49.798;10.228;2022-07-11T08:28:59;18.60;99.90
26757;DHT22;23848;49.798;10.228;2022-07-11T08:31:27;18.70;99.90
26757;DHT22;23848;49.798;10.228;2022-07-11T08:33:56;18.60;99.90
26757;DHT22;23848;49.798;10.228;2022-07-11T08:36:28;18.70;99.90
26757;DHT22;23848;49.798;10.228;2022-07-11T08:38:59;18.70;99.90
26757;DHT22;23848;49.798;10.228;2022-07-11T08:41:27;18.70;99.90
26757;DHT22;23848;49.798;10.228;2022-07-11T08:43:56;18.60;99.90
26757;DHT22;23848;49.798;10.228;2022-07-11T08:46:26;18.50;99.90
26757;DHT22;23848;49.798;10.228;2022-07-11T08:48:54;18.50;99.90
26757;DHT22;23848;49.798;10.228;2022-07-11T08:51:23;18.40;99.90
26757;DHT22;23848;49.798;10.228;2022-07-11T08:53:55;18.30;99.90
26757;DHT22;23848;49.798;10.228;2022-07-11T08:56:25;18.20;99.90
26757;DHT22;23848;49.798;10.228;2022-07-11T08:58:58;18.20;99.90
26757;DHT22;23848;49.798;10.228;2022-07-11T09:01:28;18.20;99.90
26757;DHT22;23848;49.798;10.228;2022-07-11T09:03:58;18.20;99.90
26757;DHT22;23848;49.798;10.228;2022-07-11T09:06:27;18.20;99.90
26757;DHT22;23848;49.798;10.228;2022-07-11T09:09:00;18.20;99.90
26757;DHT22;23848;49.798;10.228;2022-07-11T09:11:32;18.30;99.90
26757;DHT22;23848;49.798;10.228;2022-07-11T09:14:20;18.50;99.90
26757;DHT22;23848;49.798;10.228;2022-07-11T09:16:56;18.90;99.90
26757;DHT22;23848;49.798;10.228;2022-07-11T09:19:25;19.20;99.90
26757;DHT22;23848;49.798;10.228;2022-07-11T09:22:01;19.50;99.90
26757;DHT22;23848;49.798;10.228;2022-07-11T09:24:56;19.70;99.90
26757;DHT22;23848;49.798;10.228;2022-07-11T09:27:47;19.90;99.90
26757;DHT22;23848;49.798;10.228;2022-07-11T09:30:19;20.20;99.90
26757;DHT22;23848;49.798;10.228;2022-07-11T09:32:58;20.20;99.90
26757;DHT22;23848;49.798;10.228;2022-07-11T09:35:28;20.20;99.90
26757;DHT22;23848;49.798;10.228;2022-07-11T09:37:57;20.10;99.90
26757;DHT22;23848;49.798;10.228;2022-07-11T09:40:27;20.10;99.90
26757;DHT22;23848;49.798;10.228;2022-07-11T09:42:56;20.10;99.90
26757;DHT22;23848;49.798;10.228;2022-07-11T09:45:26;20.10;99.90
26757;DHT22;23848;49.798;10.228;2022-07-11T09:47:56;20.10;99.90
26757;DHT22;23848;49.798;10.228;2022-07-11T09:50:25;20.20;99.90
26757;DHT22;23848;49.798;10.228;2022-07-11T09:53:02;20.20;99.90
26757;DHT22;23848;49.798;10.228;2022-07-11T09:55:33;20.20;99.90
26757;DHT22;23848;49.798;10.228;2022-07-11T09:58:19;20.20;99.90
26757;DHT22;23848;49.798;10.228;2022-07-11T10:00:49;20.20;99.90
26757;DHT22;23848;49.798;10.228;2022-07-11T10:03:21;19.90;99.90
26757;DHT22;23848;49.798;10.228;2022-07-11T10:06:10;19.40;99.90
26757;DHT22;23848;49.798;10.228;2022-07-11T10:08:38;19.10;99.90
26757;DHT22;23848;49.798;10.228;2022-07-11T10:11:08;19.00;99.90
26757;DHT22;23848;49.798;10.228;2022-07-11T10:13:38;18.80;99.90
26757;DHT22;23848;49.798;10.228;2022-07-11T10:16:13;18.60;99.90
26757;DHT22;23848;49.798;10.228;2022-07-11T10:18:53;18.40;99.90
26757;DHT22;23848;49.798;10.228;2022-07-11T10:21:27;18.30;99.90
26757;DHT22;23848;49.798;10.228;2022-07-11T10:24:07;18.00;99.90
26757;DHT22;23848;49.798;10.228;2022-07-11T10:26:49;17.90;99.90
26757;DHT22;23848;49.798;10.228;2022-07-11T10:29:25;18.00;99.90
26757;DHT22;23848;49.798;10.228;2022-07-11T10:32:06;18.00;99.90
26757;DHT22;23848;49.798;10.228;2022-07-11T10:34:41;17.80;99.90
26757;DHT22;23848;49.798;10.228;2022-07-11T10:37:09;17.80;99.90
26757;DHT22;23848;49.798;10.228;2022-07-11T10:39:57;17.90;99.90
26757;DHT22;23848;49.798;10.228;2022-07-11T10:42:40;18.10;99.90
26757;DHT22;23848;49.798;10.228;2022-07-11T10:45:10;18.20;99.90
26757;DHT22;23848;49.798;10.228;2022-07-11T10:47:44;18.50;99.90
26757;DHT22;23848;49.798;10.228;2022-07-11T10:50:34;18.80;99.90
26757;DHT22;23848;49.798;10.228;2022-07-11T10:53:07;18.80;99.90
26757;DHT22;23848;49.798;10.228;2022-07-11T10:55:47;18.90;99.90
26757;DHT22;23848;49.798;10.228;2022-07-11T10:58:26;19.10;99.90
26757;DHT22;23848;49.798;10.228;2022-07-11T11:01:07;19.30;99.90
26757;DHT22;23848;49.798;10.228;2022-07-11T11:03:36;19.10;99.90
26757;DHT22;23848;49.798;10.228;2022-07-11T11:06:04;19.30;99.90
26757;DHT22;23848;49.798;10.228;2022-07-11T11:08:43;19.70;99.90
26757;DHT22;23848;49.798;10.228;2022-07-11T11:11:33;20.10;99.90
26757;DHT22;23848;49.798;10.228;2022-07-11T11:14:19;20.50;99.90
26757;DHT22;23848;49.798;10.228;2022-07-11T11:16:48;20.70;99.90
26757;DHT22;23848;49.798;10.228;2022-07-11T11:19:54;20.70;99.90
26757;DHT22;23848;49.798;10.228;2022-07-11T11:22:23;20.90;99.90
26757;DHT22;23848;49.798;10.228;2022-07-11T11:24:55;20.90;99.90
26757;DHT22;23848;49.798;10.228;2022-07-11T11:28:00;20.90;99.90
26757;DHT22;23848;49.798;10.228;2022-07-11T11:30:32;21.10;99.90
26757;DHT22;23848;49.798;10.228;2022-07-11T11:33:00;21.20;99.90
26757;DHT22;23848;49.798;10.228;2022-07-11T11:35:28;21.40;99.90
26757;DHT22;23848;49.798;10.228;2022-07-11T11:37:58;21.50;99.90
26757;DHT22;23848;49.798;10.228;2022-07-11T11:40:28;21.60;99.90
26757;DHT22;23848;49.798;10.228;2022-07-11T11:42:56;21.70;99.90
26757;DHT22;23848;49.798;10.228;2022-07-11T11:45:24;21.80;99.90
26757;DHT22;23848;49.798;10.228;2022-07-11T11:47:54;21.90;99.90
26757;DHT22;23848;49.798;10.228;2022-07-11T11:50:22;22.00;99.90
26757;DHT22;23848;49.798;10.228;2022-07-11T11:52:53;22.00;99.90
26757;DHT22;23848;49.798;10.228;2022-07-11T11:55:21;22.20;99.90
26757;DHT22;23848;49.798;10.228;2022-07-11T11:57:52;22.50;99.90
26757;DHT22;23848;49.798;10.228;2022-07-11T12:00:21;22.60;99.90
26757;DHT22;23848;49.798;10.228;2022-07-11T12:03:15;22.60;99.90
26757;DHT22;23848;49.798;10.228;2022-07-11T12:05:53;22.60;99.90
26757;DHT22;23848;49.798;10.228;2022-07-11T12:08:26;22.90;99.90
26757;DHT22;23848;49.798;10.228;2022-07-11T12:11:03;23.50;99.90
26757;DHT22;23848;49.798;10.228;2022-07-11T12:13:32;24.20;99.90
26757;DHT22;23848;49.798;10.228;2022-07-11T12:16:00;24.50;99.90
26757;DHT22;23848;49.798;10.228;2022-07-11T12:18:47;24.80;99.90
26757;DHT22;23848;49.798;10.228;2022-07-11T12:21:16;25.10;99.90
26757;DHT22;23848;49.798;10.228;2022-07-11T12:23:44;25.20;99.90
26757;DHT22;23848;49.798;10.228;2022-07-11T12:26:15;25.40;99.90
26757;DHT22;23848;49.798;10.228;2022-07-11T12:29:02;25.40;99.90
26757;DHT22;23848;49.798;10.228;2022-07-11T12:31:43;25.60;99.90
26757;DHT22;23848;49.798;10.228;2022-07-11T12:34:14;25.00;99.90
26757;DHT22;23848;49.798;10.228;2022-07-11T12:36:42;24.70;99.90
26757;DHT22;23848;49.798;10.228;2022-07-11T12:39:22;24.60;99.90
26757;DHT22;23848;49.798;10.228;2022-07-11T12:41:52;24.40;99.90
26757;DHT22;23848;49.798;10.228;2022-07-11T12:44:23;24.50;99.90
26757;DHT22;23848;49.798;10.228;2022-07-11T12:47:09;24.80;99.90
26757;DHT22;23848;49.798;10.228;2022-07-11T12:49:39;24.90;99.90
26757;DHT22;23848;49.798;10.228;2022-07-11T12:52:11;24.80;99.90
26757;DHT22;23848;49.798;10.228;2022-07-11T12:54:45;24.70;99.90
26757;DHT22;23848;49.798;10.228;2022-07-11T12:57:16;24.80;99.90
26757;DHT22;23848;49.798;10.228;2022-07-11T12:59:47;24.80;99.90
26757;DHT22;23848;49.798;10.228;2022-07-11T13:02:16;24.60;99.90
26757;DHT22;23848;49.798;10.228;2022-07-11T13:04:48;24.70;99.90
26757;DHT22;23848;49.798;10.228;2022-07-11T13:07:26;24.50;99.90
26757;DHT22;23848;49.798;10.228;2022-07-11T13:10:14;24.80;99.90
26757;DHT22;23848;49.798;10.228;2022-07-11T13:12:52;25.00;99.90
26757;DHT22;23848;49.798;10.228;2022-07-11T13:15:22;24.90;99.90
26757;DHT22;23848;49.798;10.228;2022-07-11T13:17:52;25.00;99.90
26757;DHT22;23848;49.798;10.228;2022-07-11T13:20:24;25.00;99.90
26757;DHT22;23848;49.798;10.228;2022-07-11T13:22:56;24.90;99.90
26757;DHT22;23848;49.798;10.228;2022-07-11T13:25:25;24.60;99.90
26757;DHT22;23848;49.798;10.228;2022-07-11T13:27:55;24.50;99.90
26757;DHT22;23848;49.798;10.228;2022-07-11T13:30:27;24.50;99.90
26757;DHT22;23848;49.798;10.228;2022-07-11T13:33:17;24.40;99.90
26757;DHT22;23848;49.798;10.228;2022-07-11T13:35:46;24.40;99.90
26757;DHT22;23848;49.798;10.228;2022-07-11T13:38:15;24.60;99.90
26757;DHT22;23848;49.798;10.228;2022-07-11T13:40:43;24.70;99.90
26757;DHT22;23848;49.798;10.228;2022-07-11T13:43:12;24.80;99.90
26757;DHT22;23848;49.798;10.228;2022-07-11T13:45:42;25.00;99.90
26757;DHT22;23848;49.798;10.228;2022-07-11T13:48:11;25.30;99.90
26757;DHT22;23848;49.798;10.228;2022-07-11T13:50:39;25.40;99.90
26757;DHT22;23848;49.798;10.228;2022-07-11T13:53:10;25.70;99.90
26757;DHT22;23848;49.798;10.228;2022-07-11T13:55:41;26.20;99.90
26757;DHT22;23848;49.798;10.228;2022-07-11T13:58:12;26.30;99.90
26757;DHT22;23848;49.798;10.228;2022-07-11T14:00:57;26.50;99.90
26757;DHT22;23848;49.798;10.228;2022-07-11T14:03:26;26.70;99.90
26757;DHT22;23848;49.798;10.228;2022-07-11T14:05:58;26.80;99.90
26757;DHT22;23848;49.798;10.228;2022-07-11T14:08:27;26.60;99.90
26757;DHT22;23848;49.798;10.228;2022-07-11T14:10:55;26.50;99.90
26757;DHT22;23848;49.798;10.228;2022-07-11T14:13:23;26.60;99.90
26757;DHT22;23848;49.798;10.228;2022-07-11T14:15:52;26.40;99.90
26757;DHT22;23848;49.798;10.228;2022-07-11T14:18:20;26.40;99.90
26757;DHT22;23848;49.798;10.228;2022-07-11T14:20:55;26.40;99.90
26757;DHT22;23848;49.798;10.228;2022-07-11T14:23:24;26.20;99.90
26757;DHT22;23848;49.798;10.228;2022-07-11T14:25:56;26.00;99.90
26757;DHT22;23848;49.798;10.228;2022-07-11T14:28:25;26.10;99.90
26757;DHT22;23848;49.798;10.228;2022-07-11T14:30:55;26.10;99.90
26757;DHT22;23848;49.798;10.228;2022-07-11T14:33:24;26.00;99.90
26757;DHT22;23848;49.798;10.228;2022-07-11T14:35:59;26.00;99.90
26757;DHT22;23848;49.798;10.228;2022-07-11T14:38:27;26.10;99.90
26757;DHT22;23848;49.798;10.228;2022-07-11T14:41:00;26.10;99.90
26757;DHT22;23848;49.798;10.228;2022-07-11T14:43:28;26.00;99.90
26757;DHT22;23848;49.798;10.228;2022-07-11T14:45:58;25.90;99.90
26757;DHT22;23848;49.798;10.228;2022-07-11T14:48:27;25.80;99.90
26757;DHT22;23848;49.798;10.228;2022-07-11T14:50:58;25.60;99.90
26757;DHT22;23848;49.798;10.228;2022-07-11T14:53:28;25.40;99.90
26757;DHT22;23848;49.798;10.228;2022-07-11T14:55:56;25.10;99.90
26757;DHT22;23848;49.798;10.228;2022-07-11T14:58:45;25.00;99.90
26757;DHT22;23848;49.798;10.228;2022-07-11T15:01:13;24.90;99.90
26757;DHT22;23848;49.798;10.228;2022-07-11T15:03:41;24.90;99.90
26757;DHT22;23848;49.798;10.228;2022-07-11T15:06:12;24.90;99.90
26757;DHT22;23848;49.798;10.228;2022-07-11T15:08:41;25.00;99.90
26757;DHT22;23848;49.798;10.228;2022-07-11T15:11:27;25.10;99.90
26757;DHT22;23848;49.798;10.228;2022-07-11T15:14:14;25.10;99.90
26757;DHT22;23848;49.798;10.228;2022-07-11T15:16:42;25.10;99.90
26757;DHT22;23848;49.798;10.228;2022-07-11T15:19:13;25.00;99.90
26757;DHT22;23848;49.798;10.228;2022-07-11T15:21:43;24.90;99.90
26757;DHT22;23848;49.798;10.228;2022-07-11T15:24:13;24.90;99.90
26757;DHT22;23848;49.798;10.228;2022-07-11T15:26:42;24.80;99.90
26757;DHT22;23848;49.798;10.228;2022-07-11T15:29:10;24.80;99.90
26757;DHT22;23848;49.798;10.228;2022-07-11T15:31:41;24.80;99.90
26757;DHT22;23848;49.798;10.228;2022-07-11T15:34:10;25.20;99.90
26757;DHT22;23848;49.798;10.228;2022-07-11T15:36:38;25.80;99.90